sensor_id;sensor_type;location;lat;lon;timestamp;P1;durP1;ratioP1;P2;durP2;ratioP2
51248;SDS011;39642;47.556;18.728;2023-02-28T00:01:26;15.35;;;6.57;;
51248;SDS011;39642;47.556;18.728;2023-02-28T00:03:52;16.08;;;6.93;;
51248;SDS011;39642;47.556;18.728;2023-02-28T00:06:18;14.05;;;6.30;;
51248;SDS011;39642;47.556;18.728;2023-02-28T00:08:44;15.07;;;6.97;;
51248;SDS011;39642;47.556;18.728;2023-02-28T00:11:10;14.65;;;6.75;;
51248;SDS011;39642;47.556;18.728;2023-02-28T00:13:39;15.93;;;6.15;;
51248;SDS011;39642;47.556;18.728;2023-02-28T00:16:09;15.23;;;6.40;;
51248;SDS011;39642;47.556;18.728;2023-02-28T00:18:36;13.40;;;6.45;;
51248;SDS011;39642;47.556;18.728;2023-02-28T00:21:03;14.27;;;6.22;;
51248;SDS011;39642;47.556;18.728;2023-02-28T00:23:29;14.65;;;6.47;;
51248;SDS011;39642;47.556;18.728;2023-02-28T00:25:56;15.32;;;6.78;;
51248;SDS011;39642;47.556;18.728;2023-02-28T00:28:21;15.38;;;6.72;;
51248;SDS011;39642;47.556;18.728;2023-02-28T00:30:48;14.30;;;6.30;;
51248;SDS011;39642;47.556;18.728;2023-02-28T00:33:14;14.25;;;6.53;;
51248;SDS011;39642;47.556;18.728;2023-02-28T00:35:40;12.98;;;6.47;;
51248;SDS011;39642;47.556;18.728;2023-02-28T00:38:06;14.77;;;6.57;;
51248;SDS011;39642;47.556;18.728;2023-02-28T00:40:32;14.48;;;5.95;;
51248;SDS011;39642;47.556;18.728;2023-02-28T00:42:57;14.13;;;6.35;;
51248;SDS011;39642;47.556;18.728;2023-02-28T00:45:23;13.98;;;6.43;;
51248;SDS011;39642;47.556;18.728;2023-02-28T00:47:49;15.65;;;6.95;;
51248;SDS011;39642;47.556;18.728;2023-02-28T00:50:16;15.10;;;6.43;;
51248;SDS011;39642;47.556;18.728;2023-02-28T00:52:43;13.18;;;6.07;;
51248;SDS011;39642;47.556;18.728;2023-02-28T00:55:09;13.95;;;6.25;;
51248;SDS011;39642;47.556;18.728;2023-02-28T00:57:35;14.75;;;6.60;;
51248;SDS011;39642;47.556;18.728;2023-02-28T01:00:02;14.27;;;6.20;;
51248;SDS011;39642;47.556;18.728;2023-02-28T01:02:29;15.85;;;6.82;;
51248;SDS011;39642;47.556;18.728;2023-02-28T01:04:55;14.73;;;6.60;;
51248;SDS011;39642;47.556;18.728;2023-02-28T01:07:22;14.63;;;6.87;;
51248;SDS011;39642;47.556;18.728;2023-02-28T01:09:49;14.07;;;6.43;;
51248;SDS011;39642;47.556;18.728;2023-02-28T01:12:15;13.60;;;6.32;;
51248;SDS011;39642;47.556;18.728;2023-02-28T01:14:41;13.68;;;5.90;;
51248;SDS011;39642;47.556;18.728;2023-02-28T01:17:08;15.38;;;6.60;;
51248;SDS011;39642;47.556;18.728;2023-02-28T01:19:34;13.95;;;6.90;;
51248;SDS011;39642;47.556;18.728;2023-02-28T01:22:04;13.80;;;5.95;;
51248;SDS011;39642;47.556;18.728;2023-02-28T01:24:31;16.15;;;6.12;;
51248;SDS011;39642;47.556;18.728;2023-02-28T01:26:57;13.57;;;5.82;;
51248;SDS011;39642;47.556;18.728;2023-02-28T01:29:22;13.73;;;6.15;;
51248;SDS011;39642;47.556;18.728;2023-02-28T01:31:48;13.30;;;5.95;;
51248;SDS011;39642;47.556;18.728;2023-02-28T01:34:14;13.40;;;6.30;;
51248;SDS011;39642;47.556;18.728;2023-02-28T01:36:40;15.50;;;6.12;;
51248;SDS011;39642;47.556;18.728;2023-02-28T01:39:06;13.65;;;6.15;;
51248;SDS011;39642;47.556;18.728;2023-02-28T01:41:32;12.70;;;5.87;;
51248;SDS011;39642;47.556;18.728;2023-02-28T01:47:10;13.93;;;6.12;;
51248;SDS011;39642;47.556;18.728;2023-02-28T01:49:36;14.30;;;6.57;;
51248;SDS011;39642;47.556;18.728;2023-02-28T01:52:02;15.63;;;6.57;;
51248;SDS011;39642;47.556;18.728;2023-02-28T01:54:29;13.70;;;6.22;;
51248;SDS011;39642;47.556;18.728;2023-02-28T01:57:02;14.15;;;6.25;;
51248;SDS011;39642;47.556;18.728;2023-02-28T02:02:01;13.68;;;6.10;;
51248;SDS011;39642;47.556;18.728;2023-02-28T02:04:34;14.95;;;6.50;;
51248;SDS011;39642;47.556;18.728;2023-02-28T02:07:04;15.23;;;6.47;;
51248;SDS011;39642;47.556;18.728;2023-02-28T02:09:31;13.50;;;6.03;;
51248;SDS011;39642;47.556;18.728;2023-02-28T02:11:56;13.70;;;5.97;;
51248;SDS011;39642;47.556;18.728;2023-02-28T02:14:32;12.27;;;5.78;;
51248;SDS011;39642;47.556;18.728;2023-02-28T02:25:54;13.80;;;5.80;;
51248;SDS011;39642;47.556;18.728;2023-02-28T02:34:26;13.30;;;5.78;;
51248;SDS011;39642;47.556;18.728;2023-02-28T02:39:53;15.48;;;5.87;;
51248;SDS011;39642;47.556;18.728;2023-02-28T02:42:28;13.50;;;6.00;;
51248;SDS011;39642;47.556;18.728;2023-02-28T02:45:09;12.82;;;5.90;;
51248;SDS011;39642;47.556;18.728;2023-02-28T02:48:01;13.27;;;5.47;;
51248;SDS011;39642;47.556;18.728;2023-02-28T02:50:34;14.13;;;5.70;;
51248;SDS011;39642;47.556;18.728;2023-02-28T02:53:04;13.73;;;5.85;;
51248;SDS011;39642;47.556;18.728;2023-02-28T02:55:33;12.48;;;5.85;;
51248;SDS011;39642;47.556;18.728;2023-02-28T02:58:04;13.60;;;5.60;;
51248;SDS011;39642;47.556;18.728;2023-02-28T03:00:37;12.85;;;5.85;;
51248;SDS011;39642;47.556;18.728;2023-02-28T03:03:08;14.65;;;6.00;;
51248;SDS011;39642;47.556;18.728;2023-02-28T03:05:47;14.68;;;5.50;;
51248;SDS011;39642;47.556;18.728;2023-02-28T03:08:14;13.00;;;5.40;;
51248;SDS011;39642;47.556;18.728;2023-02-28T03:24:34;12.30;;;5.20;;
51248;SDS011;39642;47.556;18.728;2023-02-28T03:27:11;12.63;;;5.12;;
51248;SDS011;39642;47.556;18.728;2023-02-28T03:29:51;13.10;;;5.40;;
51248;SDS011;39642;47.556;18.728;2023-02-28T03:32:26;11.88;;;5.10;;
51248;SDS011;39642;47.556;18.728;2023-02-28T03:35:00;12.63;;;5.30;;
51248;SDS011;39642;47.556;18.728;2023-02-28T03:37:33;12.13;;;5.40;;
51248;SDS011;39642;47.556;18.728;2023-02-28T03:40:08;12.88;;;5.37;;
51248;SDS011;39642;47.556;18.728;2023-02-28T03:42:39;12.52;;;5.55;;
51248;SDS011;39642;47.556;18.728;2023-02-28T03:45:09;12.15;;;5.12;;
51248;SDS011;39642;47.556;18.728;2023-02-28T03:47:58;12.07;;;5.00;;
51248;SDS011;39642;47.556;18.728;2023-02-28T03:50:34;11.88;;;5.32;;
51248;SDS011;39642;47.556;18.728;2023-02-28T03:55:42;13.00;;;5.10;;
51248;SDS011;39642;47.556;18.728;2023-02-28T04:00:59;11.95;;;5.32;;
51248;SDS011;39642;47.556;18.728;2023-02-28T04:03:36;11.85;;;4.80;;
51248;SDS011;39642;47.556;18.728;2023-02-28T04:06:04;12.05;;;4.97;;
51248;SDS011;39642;47.556;18.728;2023-02-28T04:08:32;12.10;;;5.03;;
51248;SDS011;39642;47.556;18.728;2023-02-28T04:11:04;11.95;;;5.07;;
51248;SDS011;39642;47.556;18.728;2023-02-28T04:13:42;12.10;;;5.07;;
51248;SDS011;39642;47.556;18.728;2023-02-28T04:16:08;12.15;;;5.10;;
51248;SDS011;39642;47.556;18.728;2023-02-28T04:18:41;12.00;;;5.37;;
51248;SDS011;39642;47.556;18.728;2023-02-28T04:21:08;12.25;;;4.97;;
51248;SDS011;39642;47.556;18.728;2023-02-28T04:23:34;12.10;;;5.12;;
51248;SDS011;39642;47.556;18.728;2023-02-28T04:26:00;11.30;;;4.60;;
51248;SDS011;39642;47.556;18.728;2023-02-28T04:28:26;11.60;;;4.95;;
51248;SDS011;39642;47.556;18.728;2023-02-28T04:30:56;13.38;;;5.40;;
51248;SDS011;39642;47.556;18.728;2023-02-28T04:33:23;11.85;;;5.10;;
51248;SDS011;39642;47.556;18.728;2023-02-28T04:35:57;11.48;;;4.80;;
51248;SDS011;39642;47.556;18.728;2023-02-28T04:38:28;11.30;;;4.65;;
51248;SDS011;39642;47.556;18.728;2023-02-28T04:40:58;12.00;;;5.00;;
51248;SDS011;39642;47.556;18.728;2023-02-28T04:43:25;11.52;;;4.85;;
51248;SDS011;39642;47.556;18.728;2023-02-28T04:45:52;12.23;;;5.05;;
51248;SDS011;39642;47.556;18.728;2023-02-28T04:48:25;12.02;;;5.05;;
51248;SDS011;39642;47.556;18.728;2023-02-28T04:50:53;11.52;;;4.87;;
51248;SDS011;39642;47.556;18.728;2023-02-28T04:53:19;12.10;;;4.80;;
51248;SDS011;39642;47.556;18.728;2023-02-28T04:55:45;11.30;;;4.70;;
51248;SDS011;39642;47.556;18.728;2023-02-28T04:58:12;12.45;;;4.78;;
51248;SDS011;39642;47.556;18.728;2023-02-28T05:00:39;13.00;;;5.05;;
51248;SDS011;39642;47.556;18.728;2023-02-28T05:03:05;13.15;;;5.30;;
51248;SDS011;39642;47.556;18.728;2023-02-28T05:05:31;12.77;;;5.05;;
51248;SDS011;39642;47.556;18.728;2023-02-28T05:07:57;12.98;;;5.20;;
51248;SDS011;39642;47.556;18.728;2023-02-28T05:10:23;11.27;;;4.80;;
51248;SDS011;39642;47.556;18.728;2023-02-28T05:12:49;12.45;;;5.07;;
51248;SDS011;39642;47.556;18.728;2023-02-28T05:15:15;12.02;;;5.30;;
51248;SDS011;39642;47.556;18.728;2023-02-28T05:17:42;12.07;;;4.68;;
51248;SDS011;39642;47.556;18.728;2023-02-28T05:20:09;12.35;;;5.20;;
51248;SDS011;39642;47.556;18.728;2023-02-28T05:22:41;12.65;;;5.20;;
51248;SDS011;39642;47.556;18.728;2023-02-28T05:25:12;11.95;;;4.87;;
51248;SDS011;39642;47.556;18.728;2023-02-28T05:27:42;11.93;;;5.10;;
51248;SDS011;39642;47.556;18.728;2023-02-28T05:30:08;12.77;;;5.07;;
51248;SDS011;39642;47.556;18.728;2023-02-28T05:32:36;11.88;;;4.90;;
51248;SDS011;39642;47.556;18.728;2023-02-28T05:35:03;12.82;;;4.72;;
51248;SDS011;39642;47.556;18.728;2023-02-28T05:37:30;11.90;;;4.72;;
51248;SDS011;39642;47.556;18.728;2023-02-28T05:39:56;12.32;;;5.37;;
51248;SDS011;39642;47.556;18.728;2023-02-28T05:42:22;12.60;;;5.00;;
51248;SDS011;39642;47.556;18.728;2023-02-28T05:44:47;11.30;;;4.82;;
51248;SDS011;39642;47.556;18.728;2023-02-28T05:47:13;11.20;;;4.28;;
51248;SDS011;39642;47.556;18.728;2023-02-28T05:49:41;12.07;;;4.03;;
51248;SDS011;39642;47.556;18.728;2023-02-28T05:52:07;10.68;;;4.18;;
51248;SDS011;39642;47.556;18.728;2023-02-28T05:54:33;11.23;;;4.60;;
51248;SDS011;39642;47.556;18.728;2023-02-28T05:56:59;12.95;;;4.90;;
51248;SDS011;39642;47.556;18.728;2023-02-28T05:59:25;11.88;;;4.57;;
51248;SDS011;39642;47.556;18.728;2023-02-28T06:01:51;11.32;;;4.25;;
51248;SDS011;39642;47.556;18.728;2023-02-28T06:04:19;12.55;;;5.05;;
51248;SDS011;39642;47.556;18.728;2023-02-28T06:06:46;13.25;;;4.90;;
51248;SDS011;39642;47.556;18.728;2023-02-28T06:09:13;12.55;;;4.55;;
51248;SDS011;39642;47.556;18.728;2023-02-28T06:11:40;13.40;;;4.95;;
51248;SDS011;39642;47.556;18.728;2023-02-28T06:14:06;13.73;;;4.65;;
51248;SDS011;39642;47.556;18.728;2023-02-28T06:16:33;13.27;;;4.50;;
51248;SDS011;39642;47.556;18.728;2023-02-28T06:19:00;12.48;;;4.55;;
51248;SDS011;39642;47.556;18.728;2023-02-28T06:21:29;14.35;;;4.68;;
51248;SDS011;39642;47.556;18.728;2023-02-28T06:23:55;18.60;;;5.22;;
51248;SDS011;39642;47.556;18.728;2023-02-28T06:26:22;26.58;;;5.55;;
51248;SDS011;39642;47.556;18.728;2023-02-28T06:28:48;18.08;;;4.95;;
51248;SDS011;39642;47.556;18.728;2023-02-28T06:31:15;17.23;;;4.65;;
51248;SDS011;39642;47.556;18.728;2023-02-28T06:33:43;26.05;;;5.28;;
51248;SDS011;39642;47.556;18.728;2023-02-28T06:36:10;21.00;;;4.62;;
51248;SDS011;39642;47.556;18.728;2023-02-28T06:38:38;19.48;;;4.50;;
51248;SDS011;39642;47.556;18.728;2023-02-28T06:41:05;11.93;;;4.00;;
51248;SDS011;39642;47.556;18.728;2023-02-28T06:43:32;16.65;;;4.43;;
51248;SDS011;39642;47.556;18.728;2023-02-28T06:46:02;15.02;;;4.22;;
51248;SDS011;39642;47.556;18.728;2023-02-28T06:48:29;16.50;;;4.25;;
51248;SDS011;39642;47.556;18.728;2023-02-28T06:51:05;18.05;;;4.45;;
51248;SDS011;39642;47.556;18.728;2023-02-28T06:53:35;14.68;;;4.50;;
51248;SDS011;39642;47.556;18.728;2023-02-28T06:56:09;22.62;;;5.15;;
51248;SDS011;39642;47.556;18.728;2023-02-28T06:58:37;17.23;;;5.15;;
51248;SDS011;39642;47.556;18.728;2023-02-28T07:01:05;15.70;;;4.65;;
51248;SDS011;39642;47.556;18.728;2023-02-28T07:03:31;20.33;;;5.00;;
51248;SDS011;39642;47.556;18.728;2023-02-28T07:05:57;19.83;;;5.10;;
51248;SDS011;39642;47.556;18.728;2023-02-28T07:08:24;24.58;;;5.22;;
51248;SDS011;39642;47.556;18.728;2023-02-28T07:10:54;22.15;;;5.25;;
51248;SDS011;39642;47.556;18.728;2023-02-28T07:13:21;18.23;;;5.10;;
51248;SDS011;39642;47.556;18.728;2023-02-28T07:15:54;17.95;;;5.75;;
51248;SDS011;39642;47.556;18.728;2023-02-28T07:18:28;24.65;;;5.15;;
51248;SDS011;39642;47.556;18.728;2023-02-28T07:20:55;15.25;;;4.65;;
51248;SDS011;39642;47.556;18.728;2023-02-28T07:23:21;18.15;;;4.80;;
51248;SDS011;39642;47.556;18.728;2023-02-28T07:25:47;16.08;;;4.85;;
51248;SDS011;39642;47.556;18.728;2023-02-28T07:28:14;24.60;;;5.80;;
51248;SDS011;39642;47.556;18.728;2023-02-28T07:30:40;16.48;;;4.80;;
51248;SDS011;39642;47.556;18.728;2023-02-28T07:33:06;18.50;;;5.22;;
51248;SDS011;39642;47.556;18.728;2023-02-28T07:35:32;16.90;;;5.15;;
51248;SDS011;39642;47.556;18.728;2023-02-28T07:37:58;15.98;;;4.80;;
51248;SDS011;39642;47.556;18.728;2023-02-28T07:40:24;15.93;;;4.30;;
51248;SDS011;39642;47.556;18.728;2023-02-28T07:42:50;23.02;;;5.28;;
51248;SDS011;39642;47.556;18.728;2023-02-28T07:45:16;18.67;;;4.50;;
51248;SDS011;39642;47.556;18.728;2023-02-28T07:47:43;24.37;;;4.65;;
51248;SDS011;39642;47.556;18.728;2023-02-28T07:50:10;20.50;;;4.47;;
51248;SDS011;39642;47.556;18.728;2023-02-28T07:52:38;18.65;;;4.60;;
51248;SDS011;39642;47.556;18.728;2023-02-28T07:55:05;16.30;;;4.62;;
51248;SDS011;39642;47.556;18.728;2023-02-28T07:57:33;20.67;;;4.57;;
51248;SDS011;39642;47.556;18.728;2023-02-28T07:59:59;19.42;;;4.68;;
51248;SDS011;39642;47.556;18.728;2023-02-28T08:02:25;27.55;;;4.53;;
51248;SDS011;39642;47.556;18.728;2023-02-28T08:04:51;28.75;;;4.47;;
51248;SDS011;39642;47.556;18.728;2023-02-28T08:07:17;19.30;;;4.60;;
51248;SDS011;39642;47.556;18.728;2023-02-28T08:09:43;19.15;;;4.18;;
51248;SDS011;39642;47.556;18.728;2023-02-28T08:12:10;20.70;;;4.93;;
51248;SDS011;39642;47.556;18.728;2023-02-28T08:14:37;20.30;;;4.57;;
51248;SDS011;39642;47.556;18.728;2023-02-28T08:17:03;17.95;;;4.82;;
51248;SDS011;39642;47.556;18.728;2023-02-28T08:19:29;28.75;;;4.68;;
51248;SDS011;39642;47.556;18.728;2023-02-28T08:21:56;22.40;;;4.30;;
51248;SDS011;39642;47.556;18.728;2023-02-28T08:24:22;21.40;;;4.82;;
51248;SDS011;39642;47.556;18.728;2023-02-28T08:26:48;36.15;;;5.05;;
51248;SDS011;39642;47.556;18.728;2023-02-28T08:29:15;30.35;;;5.78;;
51248;SDS011;39642;47.556;18.728;2023-02-28T08:31:41;24.90;;;4.85;;
51248;SDS011;39642;47.556;18.728;2023-02-28T08:34:07;23.70;;;4.90;;
51248;SDS011;39642;47.556;18.728;2023-02-28T08:36:34;22.42;;;5.72;;
51248;SDS011;39642;47.556;18.728;2023-02-28T08:39:00;28.23;;;7.10;;
51248;SDS011;39642;47.556;18.728;2023-02-28T08:41:26;26.85;;;7.20;;
51248;SDS011;39642;47.556;18.728;2023-02-28T08:43:52;30.88;;;6.28;;
51248;SDS011;39642;47.556;18.728;2023-02-28T08:46:19;29.30;;;5.68;;
51248;SDS011;39642;47.556;18.728;2023-02-28T08:48:45;24.80;;;4.90;;
51248;SDS011;39642;47.556;18.728;2023-02-28T08:51:15;28.50;;;5.32;;
51248;SDS011;39642;47.556;18.728;2023-02-28T08:53:47;23.73;;;5.78;;
51248;SDS011;39642;47.556;18.728;2023-02-28T08:56:15;28.05;;;6.18;;
51248;SDS011;39642;47.556;18.728;2023-02-28T08:58:45;21.92;;;4.87;;
51248;SDS011;39642;47.556;18.728;2023-02-28T09:01:13;29.20;;;6.37;;
51248;SDS011;39642;47.556;18.728;2023-02-28T09:03:40;40.95;;;8.65;;
51248;SDS011;39642;47.556;18.728;2023-02-28T09:06:07;30.37;;;8.10;;
51248;SDS011;39642;47.556;18.728;2023-02-28T09:08:34;30.80;;;6.72;;
51248;SDS011;39642;47.556;18.728;2023-02-28T09:11:00;20.75;;;5.25;;
51248;SDS011;39642;47.556;18.728;2023-02-28T09:13:27;18.37;;;4.45;;
51248;SDS011;39642;47.556;18.728;2023-02-28T09:15:53;18.08;;;4.10;;
51248;SDS011;39642;47.556;18.728;2023-02-28T09:18:20;17.27;;;4.00;;
51248;SDS011;39642;47.556;18.728;2023-02-28T09:20:46;17.42;;;4.87;;
51248;SDS011;39642;47.556;18.728;2023-02-28T09:23:12;23.95;;;4.97;;
51248;SDS011;39642;47.556;18.728;2023-02-28T09:25:44;24.77;;;5.35;;
51248;SDS011;39642;47.556;18.728;2023-02-28T09:28:12;22.80;;;5.00;;
51248;SDS011;39642;47.556;18.728;2023-02-28T09:30:39;18.20;;;4.35;;
51248;SDS011;39642;47.556;18.728;2023-02-28T09:33:05;23.73;;;4.75;;
51248;SDS011;39642;47.556;18.728;2023-02-28T09:35:31;18.90;;;4.30;;
51248;SDS011;39642;47.556;18.728;2023-02-28T09:37:57;14.98;;;3.95;;
51248;SDS011;39642;47.556;18.728;2023-02-28T09:40:24;24.35;;;4.57;;
51248;SDS011;39642;47.556;18.728;2023-02-28T09:42:52;35.15;;;4.60;;
51248;SDS011;39642;47.556;18.728;2023-02-28T09:45:24;35.97;;;5.53;;
51248;SDS011;39642;47.556;18.728;2023-02-28T09:47:56;35.30;;;5.07;;
51248;SDS011;39642;47.556;18.728;2023-02-28T09:50:38;30.98;;;5.32;;
51248;SDS011;39642;47.556;18.728;2023-02-28T09:53:21;33.28;;;5.03;;
51248;SDS011;39642;47.556;18.728;2023-02-28T09:55:54;28.85;;;4.95;;
51248;SDS011;39642;47.556;18.728;2023-02-28T10:07:06;27.37;;;5.03;;
51248;SDS011;39642;47.556;18.728;2023-02-28T10:09:45;33.72;;;5.78;;
51248;SDS011;39642;47.556;18.728;2023-02-28T10:12:15;30.83;;;5.20;;
51248;SDS011;39642;47.556;18.728;2023-02-28T10:14:44;23.92;;;4.80;;
51248;SDS011;39642;47.556;18.728;2023-02-28T10:17:19;27.30;;;5.25;;
51248;SDS011;39642;47.556;18.728;2023-02-28T10:22:19;23.52;;;4.60;;
51248;SDS011;39642;47.556;18.728;2023-02-28T10:24:49;37.45;;;5.30;;
51248;SDS011;39642;47.556;18.728;2023-02-28T10:29:50;26.40;;;5.62;;
51248;SDS011;39642;47.556;18.728;2023-02-28T10:32:21;25.27;;;5.07;;
51248;SDS011;39642;47.556;18.728;2023-02-28T10:34:51;27.50;;;4.95;;
51248;SDS011;39642;47.556;18.728;2023-02-28T10:37:20;22.92;;;5.35;;
51248;SDS011;39642;47.556;18.728;2023-02-28T10:39:47;28.50;;;4.60;;
51248;SDS011;39642;47.556;18.728;2023-02-28T10:42:20;28.77;;;4.72;;
51248;SDS011;39642;47.556;18.728;2023-02-28T10:47:38;42.03;;;5.97;;
51248;SDS011;39642;47.556;18.728;2023-02-28T10:50:26;34.88;;;5.53;;
51248;SDS011;39642;47.556;18.728;2023-02-28T10:53:27;43.00;;;6.60;;
51248;SDS011;39642;47.556;18.728;2023-02-28T10:56:06;34.08;;;5.20;;
51248;SDS011;39642;47.556;18.728;2023-02-28T11:01:34;28.05;;;6.35;;
51248;SDS011;39642;47.556;18.728;2023-02-28T11:04:02;27.30;;;5.45;;
51248;SDS011;39642;47.556;18.728;2023-02-28T11:06:41;26.87;;;5.12;;
51248;SDS011;39642;47.556;18.728;2023-02-28T11:09:24;34.25;;;5.47;;
51248;SDS011;39642;47.556;18.728;2023-02-28T11:11:57;31.67;;;5.45;;
51248;SDS011;39642;47.556;18.728;2023-02-28T11:14:30;30.83;;;5.37;;
51248;SDS011;39642;47.556;18.728;2023-02-28T11:17:11;29.63;;;5.00;;
51248;SDS011;39642;47.556;18.728;2023-02-28T11:19:44;26.27;;;5.62;;
51248;SDS011;39642;47.556;18.728;2023-02-28T11:22:15;23.30;;;4.87;;
51248;SDS011;39642;47.556;18.728;2023-02-28T11:24:45;27.58;;;5.37;;
51248;SDS011;39642;47.556;18.728;2023-02-28T11:29:57;26.20;;;5.05;;
51248;SDS011;39642;47.556;18.728;2023-02-28T11:32:27;20.25;;;4.43;;
51248;SDS011;39642;47.556;18.728;2023-02-28T11:37:27;22.85;;;4.80;;
51248;SDS011;39642;47.556;18.728;2023-02-28T11:39:54;45.15;;;5.75;;
51248;SDS011;39642;47.556;18.728;2023-02-28T11:42:31;28.02;;;5.28;;
51248;SDS011;39642;47.556;18.728;2023-02-28T11:45:16;29.87;;;5.18;;
51248;SDS011;39642;47.556;18.728;2023-02-28T11:47:47;31.85;;;5.85;;
51248;SDS011;39642;47.556;18.728;2023-02-28T11:53:02;38.58;;;6.25;;
51248;SDS011;39642;47.556;18.728;2023-02-28T11:55:36;30.65;;;4.60;;
51248;SDS011;39642;47.556;18.728;2023-02-28T12:14:47;31.92;;;5.43;;
51248;SDS011;39642;47.556;18.728;2023-02-28T12:20:03;20.55;;;4.75;;
51248;SDS011;39642;47.556;18.728;2023-02-28T12:23:00;24.10;;;4.72;;
51248;SDS011;39642;47.556;18.728;2023-02-28T12:28:21;25.08;;;4.18;;
51248;SDS011;39642;47.556;18.728;2023-02-28T12:30:54;29.02;;;5.22;;
51248;SDS011;39642;47.556;18.728;2023-02-28T12:33:28;18.00;;;4.65;;
51248;SDS011;39642;47.556;18.728;2023-02-28T12:36:01;22.37;;;5.47;;
51248;SDS011;39642;47.556;18.728;2023-02-28T12:38:43;23.73;;;4.30;;
51248;SDS011;39642;47.556;18.728;2023-02-28T12:41:13;40.70;;;5.53;;
51248;SDS011;39642;47.556;18.728;2023-02-28T12:43:44;26.85;;;4.20;;
51248;SDS011;39642;47.556;18.728;2023-02-28T12:46:48;15.27;;;3.92;;
51248;SDS011;39642;47.556;18.728;2023-02-28T12:51:59;23.00;;;4.12;;
51248;SDS011;39642;47.556;18.728;2023-02-28T12:57:33;23.02;;;4.57;;
51248;SDS011;39642;47.556;18.728;2023-02-28T13:11:25;27.08;;;5.72;;
51248;SDS011;39642;47.556;18.728;2023-02-28T13:14:05;31.35;;;4.85;;
51248;SDS011;39642;47.556;18.728;2023-02-28T13:19:46;21.17;;;5.35;;
51248;SDS011;39642;47.556;18.728;2023-02-28T13:24:52;33.67;;;5.15;;
51248;SDS011;39642;47.556;18.728;2023-02-28T13:27:21;19.02;;;4.10;;
51248;SDS011;39642;47.556;18.728;2023-02-28T13:29:57;25.75;;;4.68;;
51248;SDS011;39642;47.556;18.728;2023-02-28T13:39:49;28.23;;;4.50;;
51248;SDS011;39642;47.556;18.728;2023-02-28T13:47:30;23.20;;;5.07;;
51248;SDS011;39642;47.556;18.728;2023-02-28T14:18:02;23.58;;;4.05;;
51248;SDS011;39642;47.556;18.728;2023-02-28T14:20:36;25.48;;;4.15;;
51248;SDS011;39642;47.556;18.728;2023-02-28T14:25:55;26.75;;;4.40;;
51248;SDS011;39642;47.556;18.728;2023-02-28T14:31:27;32.13;;;4.45;;
51248;SDS011;39642;47.556;18.728;2023-02-28T14:36:49;19.40;;;4.00;;
51248;SDS011;39642;47.556;18.728;2023-02-28T14:39:22;22.83;;;4.72;;
51248;SDS011;39642;47.556;18.728;2023-02-28T14:58:20;21.17;;;4.18;;
51248;SDS011;39642;47.556;18.728;2023-02-28T15:00:50;19.42;;;4.05;;
51248;SDS011;39642;47.556;18.728;2023-02-28T15:03:20;28.33;;;5.30;;
51248;SDS011;39642;47.556;18.728;2023-02-28T15:06:02;28.05;;;4.68;;
51248;SDS011;39642;47.556;18.728;2023-02-28T15:08:29;25.42;;;4.50;;
51248;SDS011;39642;47.556;18.728;2023-02-28T15:11:01;29.87;;;4.93;;
51248;SDS011;39642;47.556;18.728;2023-02-28T15:13:34;21.25;;;4.10;;
51248;SDS011;39642;47.556;18.728;2023-02-28T15:16:04;20.65;;;4.40;;
51248;SDS011;39642;47.556;18.728;2023-02-28T15:21:17;52.05;;;6.80;;
51248;SDS011;39642;47.556;18.728;2023-02-28T15:23:46;31.48;;;5.45;;
51248;SDS011;39642;47.556;18.728;2023-02-28T15:26:20;32.75;;;5.35;;
51248;SDS011;39642;47.556;18.728;2023-02-28T15:28:54;34.50;;;5.45;;
51248;SDS011;39642;47.556;18.728;2023-02-28T15:31:28;27.70;;;5.50;;
51248;SDS011;39642;47.556;18.728;2023-02-28T15:33:58;19.73;;;4.82;;
51248;SDS011;39642;47.556;18.728;2023-02-28T15:36:30;28.43;;;4.20;;
51248;SDS011;39642;47.556;18.728;2023-02-28T15:38:59;17.10;;;4.28;;
51248;SDS011;39642;47.556;18.728;2023-02-28T15:41:36;19.00;;;3.80;;
51248;SDS011;39642;47.556;18.728;2023-02-28T15:44:13;19.55;;;4.75;;
51248;SDS011;39642;47.556;18.728;2023-02-28T15:46:53;17.05;;;3.92;;
51248;SDS011;39642;47.556;18.728;2023-02-28T15:49:22;19.02;;;4.20;;
51248;SDS011;39642;47.556;18.728;2023-02-28T15:51:50;16.42;;;4.65;;
51248;SDS011;39642;47.556;18.728;2023-02-28T15:54:20;18.15;;;4.78;;
51248;SDS011;39642;47.556;18.728;2023-02-28T15:56:51;14.45;;;4.75;;
51248;SDS011;39642;47.556;18.728;2023-02-28T15:59:20;20.02;;;4.55;;
51248;SDS011;39642;47.556;18.728;2023-02-28T16:02:01;14.90;;;4.37;;
51248;SDS011;39642;47.556;18.728;2023-02-28T16:04:54;21.77;;;4.47;;
51248;SDS011;39642;47.556;18.728;2023-02-28T16:07:36;14.90;;;4.70;;
51248;SDS011;39642;47.556;18.728;2023-02-28T16:10:04;18.10;;;3.85;;
51248;SDS011;39642;47.556;18.728;2023-02-28T16:12:32;16.35;;;4.70;;
51248;SDS011;39642;47.556;18.728;2023-02-28T16:15:03;13.00;;;4.72;;
51248;SDS011;39642;47.556;18.728;2023-02-28T16:17:33;12.37;;;4.22;;
51248;SDS011;39642;47.556;18.728;2023-02-28T16:20:00;14.13;;;3.90;;
51248;SDS011;39642;47.556;18.728;2023-02-28T16:22:26;14.45;;;4.35;;
51248;SDS011;39642;47.556;18.728;2023-02-28T16:24:52;13.80;;;4.35;;
51248;SDS011;39642;47.556;18.728;2023-02-28T16:27:20;14.02;;;4.70;;
51248;SDS011;39642;47.556;18.728;2023-02-28T16:29:56;12.85;;;4.60;;
51248;SDS011;39642;47.556;18.728;2023-02-28T16:32:22;11.98;;;4.43;;
51248;SDS011;39642;47.556;18.728;2023-02-28T16:34:48;14.23;;;4.87;;
51248;SDS011;39642;47.556;18.728;2023-02-28T16:37:15;15.27;;;5.50;;
51248;SDS011;39642;47.556;18.728;2023-02-28T16:39:43;16.02;;;5.22;;
51248;SDS011;39642;47.556;18.728;2023-02-28T16:42:21;15.07;;;4.72;;
51248;SDS011;39642;47.556;18.728;2023-02-28T16:44:52;15.85;;;4.90;;
51248;SDS011;39642;47.556;18.728;2023-02-28T16:47:19;14.23;;;4.75;;
51248;SDS011;39642;47.556;18.728;2023-02-28T16:49:45;17.62;;;5.78;;
51248;SDS011;39642;47.556;18.728;2023-02-28T16:52:13;17.40;;;6.40;;
51248;SDS011;39642;47.556;18.728;2023-02-28T16:54:40;14.80;;;5.90;;
51248;SDS011;39642;47.556;18.728;2023-02-28T16:57:09;16.73;;;6.18;;
51248;SDS011;39642;47.556;18.728;2023-02-28T16:59:43;16.77;;;6.37;;
51248;SDS011;39642;47.556;18.728;2023-02-28T17:02:10;18.83;;;6.10;;
51248;SDS011;39642;47.556;18.728;2023-02-28T17:04:39;16.87;;;6.40;;
51248;SDS011;39642;47.556;18.728;2023-02-28T17:07:08;16.77;;;6.12;;
51248;SDS011;39642;47.556;18.728;2023-02-28T17:09:37;13.67;;;5.57;;
51248;SDS011;39642;47.556;18.728;2023-02-28T17:12:03;17.20;;;6.07;;
51248;SDS011;39642;47.556;18.728;2023-02-28T17:14:29;14.77;;;5.62;;
51248;SDS011;39642;47.556;18.728;2023-02-28T17:16:55;15.93;;;5.82;;
51248;SDS011;39642;47.556;18.728;2023-02-28T17:19:21;13.57;;;5.57;;
51248;SDS011;39642;47.556;18.728;2023-02-28T17:21:47;16.87;;;5.60;;
51248;SDS011;39642;47.556;18.728;2023-02-28T17:24:13;16.58;;;5.53;;
51248;SDS011;39642;47.556;18.728;2023-02-28T17:26:39;13.68;;;6.12;;
51248;SDS011;39642;47.556;18.728;2023-02-28T17:29:11;15.85;;;5.25;;
51248;SDS011;39642;47.556;18.728;2023-02-28T17:31:46;15.38;;;5.82;;
51248;SDS011;39642;47.556;18.728;2023-02-28T17:34:12;15.10;;;5.70;;
51248;SDS011;39642;47.556;18.728;2023-02-28T17:36:44;13.90;;;5.57;;
51248;SDS011;39642;47.556;18.728;2023-02-28T17:39:12;16.52;;;6.03;;